createdAt,value
2023-01-25T00:00:39.384Z,12.98
2023-01-25T00:02:42.835Z,13.35
2023-01-25T00:04:46.341Z,12.13
2023-01-25T00:06:50.268Z,12.05
2023-01-25T00:08:53.852Z,11.18
2023-01-25T00:10:58.554Z,11.93
2023-01-25T00:13:03.500Z,14.02
2023-01-25T00:15:08.677Z,12.35
2023-01-25T00:17:12.450Z,11.27
2023-01-25T00:19:15.867Z,10.88
2023-01-25T00:21:21.376Z,12.15
2023-01-25T00:23:24.778Z,12.23
2023-01-25T00:25:28.236Z,11.60
2023-01-25T00:27:31.598Z,11.57
2023-01-25T00:29:36.391Z,11.32
2023-01-25T00:31:47.720Z,12.38
2023-01-25T00:33:56.894Z,12.52
2023-01-25T00:36:02.557Z,12.05
2023-01-25T00:38:28.537Z,14.82
2023-01-25T00:40:31.869Z,15.10
2023-01-25T00:42:35.511Z,13.00
2023-01-25T00:44:40.509Z,13.85
2023-01-25T00:46:45.479Z,13.32
2023-01-25T00:48:49.314Z,12.82
2023-01-25T00:50:52.660Z,11.07
2023-01-25T00:52:56.059Z,12.60
2023-01-25T00:54:59.456Z,10.55
2023-01-25T00:57:03.165Z,12.13
2023-01-25T00:59:07.207Z,10.85
2023-01-25T01:01:13.004Z,11.00
2023-01-25T01:03:17.318Z,11.00
2023-01-25T01:05:22.365Z,12.75
2023-01-25T01:07:25.999Z,12.98
2023-01-25T01:09:29.513Z,11.27
2023-01-25T01:11:34.920Z,12.98
2023-01-25T01:13:38.478Z,11.05
2023-01-25T01:15:41.944Z,11.35
2023-01-25T01:17:47.135Z,12.30
2023-01-25T01:19:50.601Z,13.50
2023-01-25T01:21:54.024Z,11.32
2023-01-25T01:23:58.943Z,12.30
2023-01-25T01:26:02.978Z,12.45
2023-01-25T01:28:06.447Z,16.85
2023-01-25T01:30:11.725Z,14.10
2023-01-25T01:32:15.462Z,14.60
2023-01-25T01:34:20.774Z,14.20
2023-01-25T01:36:25.764Z,13.15
2023-01-25T01:38:30.274Z,11.88
2023-01-25T01:40:33.665Z,11.85
2023-01-25T01:42:57.538Z,13.25
2023-01-25T01:45:00.936Z,13.05
2023-01-25T01:47:04.662Z,14.02
2023-01-25T01:49:16.056Z,12.73
2023-01-25T01:51:25.546Z,12.07
2023-01-25T01:53:31.747Z,11.95
2023-01-25T01:55:35.209Z,13.50
2023-01-25T02:01:06.848Z,13.30
2023-01-25T02:03:12.318Z,13.90
2023-01-25T02:05:20.542Z,14.05
2023-01-25T02:07:35.004Z,13.85
2023-01-25T02:09:38.836Z,11.93
2023-01-25T02:11:42.975Z,12.18
2023-01-25T02:13:46.455Z,13.88
2023-01-25T02:15:56.302Z,12.88
2023-01-25T02:18:00.448Z,12.43
2023-01-25T02:20:09.722Z,14.68
2023-01-25T02:22:17.025Z,12.50
2023-01-25T02:24:29.370Z,13.77
2023-01-25T02:26:34.903Z,14.95
2023-01-25T02:28:43.539Z,15.90
2023-01-25T02:30:47.279Z,13.77
2023-01-25T02:32:52.581Z,14.82
2023-01-25T02:34:56.571Z,15.77
2023-01-25T02:37:00.720Z,14.75
2023-01-25T02:39:06.686Z,14.48
2023-01-25T02:41:14.780Z,13.70
2023-01-25T02:43:20.545Z,14.57
2023-01-25T02:45:30.577Z,14.68
2023-01-25T02:47:34.079Z,14.95
2023-01-25T02:49:39.097Z,14.30
2023-01-25T02:51:46.686Z,14.55
2023-01-25T02:53:50.574Z,13.98
2023-01-25T02:55:54.067Z,14.85
2023-01-25T02:57:57.475Z,15.15
2023-01-25T03:00:02.297Z,15.70
2023-01-25T03:02:06.060Z,14.32
2023-01-25T03:04:10.264Z,13.82
2023-01-25T03:06:13.759Z,13.82
2023-01-25T03:08:19.183Z,13.40
2023-01-25T03:10:25.231Z,13.15
2023-01-25T03:12:29.605Z,13.73
2023-01-25T03:14:33.180Z,14.77
2023-01-25T03:16:38.028Z,14.02
2023-01-25T03:18:43.709Z,11.77
2023-01-25T03:20:48.017Z,13.18
2023-01-25T03:22:51.503Z,15.55
2023-01-25T03:24:55.006Z,13.77
2023-01-25T03:27:17.115Z,13.88
2023-01-25T03:29:26.705Z,12.32
2023-01-25T03:31:30.385Z,12.93
2023-01-25T03:33:35.880Z,12.25
2023-01-25T03:35:39.665Z,13.50
2023-01-25T03:37:43.943Z,13.02
2023-01-25T03:39:47.697Z,13.55
2023-01-25T03:41:51.418Z,11.90
2023-01-25T03:43:55.238Z,11.65
2023-01-25T03:46:01.372Z,12.80
2023-01-25T03:48:07.224Z,13.85
2023-01-25T03:50:12.783Z,14.65
2023-01-25T03:52:17.372Z,12.98
2023-01-25T03:54:21.029Z,12.45
2023-01-25T03:56:24.391Z,15.30
2023-01-25T03:58:39.452Z,12.15
2023-01-25T04:00:45.236Z,12.80
2023-01-25T04:02:49.393Z,12.98
2023-01-25T04:04:55.237Z,14.43
2023-01-25T04:07:00.842Z,13.40
2023-01-25T04:09:06.787Z,13.15
2023-01-25T04:11:15.783Z,14.35
2023-01-25T04:13:22.686Z,14.60
2023-01-25T04:15:27.119Z,14.82
2023-01-25T04:17:32.501Z,15.00
2023-01-25T04:19:39.173Z,14.90
2023-01-25T04:21:47.046Z,14.43
2023-01-25T04:23:51.905Z,13.98
2023-01-25T04:25:56.207Z,15.60
2023-01-25T04:28:00.135Z,14.05
2023-01-25T04:30:03.871Z,14.57
2023-01-25T04:32:10.816Z,14.13
2023-01-25T04:34:14.739Z,14.65
2023-01-25T04:36:18.247Z,13.95
2023-01-25T04:38:23.237Z,14.23
2023-01-25T04:40:28.684Z,14.52
2023-01-25T04:42:32.412Z,12.60
2023-01-25T04:44:35.812Z,14.40
2023-01-25T04:46:39.969Z,12.80
2023-01-25T04:48:43.700Z,13.43
2023-01-25T04:50:47.667Z,13.35
2023-01-25T04:52:51.382Z,12.38
2023-01-25T04:54:54.906Z,14.75
2023-01-25T04:57:00.248Z,13.18
2023-01-25T04:59:04.094Z,13.23
2023-01-25T05:01:08.916Z,12.48
2023-01-25T05:03:12.382Z,14.63
2023-01-25T05:05:16.148Z,14.07
2023-01-25T05:07:22.463Z,15.55
2023-01-25T05:09:26.503Z,15.05
2023-01-25T05:11:30.767Z,13.52
2023-01-25T05:13:58.394Z,13.95
2023-01-25T05:16:09.134Z,13.30
2023-01-25T05:18:14.210Z,11.13
2023-01-25T05:20:17.864Z,12.02
2023-01-25T05:22:21.787Z,13.52
2023-01-25T05:24:30.214Z,14.35
2023-01-25T05:26:52.754Z,15.48
2023-01-25T05:28:56.318Z,17.02
2023-01-25T05:31:16.366Z,16.08
2023-01-25T05:33:20.185Z,18.17
2023-01-25T05:35:23.627Z,18.63
2023-01-25T05:37:30.821Z,16.50
2023-01-25T05:39:39.301Z,14.73
2023-01-25T05:41:42.769Z,15.93
2023-01-25T05:43:49.154Z,14.63
2023-01-25T05:45:54.803Z,13.10
2023-01-25T05:48:00.699Z,14.15
2023-01-25T05:50:04.500Z,16.58
2023-01-25T05:52:29.481Z,14.73
2023-01-25T05:54:32.988Z,16.90
2023-01-25T05:56:40.825Z,13.93
2023-01-25T05:58:44.845Z,13.85
2023-01-25T06:00:48.333Z,15.55
2023-01-25T06:03:04.825Z,16.33
2023-01-25T06:05:11.924Z,13.50
2023-01-25T06:07:15.547Z,15.00
2023-01-25T06:09:19.430Z,14.13
2023-01-25T06:11:25.224Z,14.88
2023-01-25T06:13:30.749Z,14.18
2023-01-25T06:15:35.197Z,14.20
2023-01-25T06:17:57.786Z,15.00
2023-01-25T06:20:12.084Z,20.30
2023-01-25T06:22:31.905Z,18.40
2023-01-25T06:24:35.315Z,17.70
2023-01-25T06:26:38.824Z,16.10
2023-01-25T06:28:42.467Z,14.00
2023-01-25T06:30:45.984Z,13.43
2023-01-25T06:32:50.455Z,14.25
2023-01-25T06:34:53.852Z,12.80
2023-01-25T06:37:01.867Z,15.50
2023-01-25T06:39:05.740Z,14.70
2023-01-25T06:41:12.310Z,13.63
2023-01-25T06:43:15.684Z,12.75
2023-01-25T06:45:19.442Z,14.88
2023-01-25T06:47:22.928Z,14.02
2023-01-25T06:49:26.402Z,14.88
2023-01-25T06:51:30.440Z,15.90
2023-01-25T06:53:37.355Z,14.80
2023-01-25T06:55:40.874Z,16.73
2023-01-25T06:57:44.284Z,16.10
2023-01-25T06:59:47.668Z,13.15
2023-01-25T07:01:51.303Z,14.00
2023-01-25T07:03:56.833Z,12.25
2023-01-25T07:06:00.806Z,12.70
2023-01-25T07:08:04.231Z,17.15
2023-01-25T07:10:10.563Z,17.15
2023-01-25T07:12:13.977Z,14.48
2023-01-25T07:14:17.699Z,15.05
2023-01-25T07:16:21.791Z,15.10
2023-01-25T07:18:25.899Z,14.48
2023-01-25T07:20:29.291Z,17.00
2023-01-25T07:22:32.731Z,17.30
2023-01-25T07:24:36.147Z,17.60
2023-01-25T07:26:40.955Z,16.98
2023-01-25T07:28:44.843Z,18.42
2023-01-25T07:30:49.138Z,17.10
2023-01-25T07:32:52.490Z,15.07
2023-01-25T07:34:55.981Z,16.35
2023-01-25T07:36:59.560Z,15.55
2023-01-25T07:39:02.977Z,14.60
2023-01-25T07:41:07.122Z,19.85
2023-01-25T07:43:11.970Z,14.20
2023-01-25T07:45:15.577Z,14.45
2023-01-25T07:47:19.273Z,16.60
2023-01-25T07:49:22.822Z,17.08
2023-01-25T07:51:27.981Z,17.25
2023-01-25T07:53:31.545Z,16.63
2023-01-25T07:55:35.393Z,19.73
2023-01-25T07:57:38.870Z,17.95
2023-01-25T07:59:43.696Z,21.75
2023-01-25T08:01:47.110Z,18.08
2023-01-25T08:03:51.545Z,19.60
2023-01-25T08:05:55.112Z,20.48
2023-01-25T08:07:58.622Z,18.45
2023-01-25T08:10:02.044Z,17.50
2023-01-25T08:12:08.536Z,17.85
2023-01-25T08:14:12.421Z,20.27
2023-01-25T08:16:18.994Z,20.08
2023-01-25T08:18:22.415Z,21.00
2023-01-25T08:20:25.845Z,20.60
2023-01-25T08:22:29.382Z,21.45
2023-01-25T08:24:32.825Z,29.67
2023-01-25T08:26:37.508Z,23.30
2023-01-25T08:28:41.425Z,22.80
2023-01-25T08:30:56.383Z,21.92
2023-01-25T08:33:03.165Z,19.20
2023-01-25T08:35:08.062Z,20.60
2023-01-25T08:37:11.765Z,22.17
2023-01-25T08:39:15.144Z,20.13
2023-01-25T08:41:20.459Z,18.63
2023-01-25T08:43:23.832Z,20.20
2023-01-25T08:45:27.237Z,19.83
2023-01-25T08:47:31.237Z,17.70
2023-01-25T08:49:36.076Z,19.65
2023-01-25T08:51:39.647Z,21.30
2023-01-25T08:53:43.760Z,19.70
2023-01-25T08:55:47.446Z,24.02
2023-01-25T08:57:50.834Z,20.75
2023-01-25T08:59:54.217Z,22.27
2023-01-25T09:01:57.608Z,20.05
2023-01-25T09:04:01.130Z,19.40
2023-01-25T09:06:06.651Z,20.27
2023-01-25T09:08:11.665Z,18.48
2023-01-25T09:10:15.337Z,18.98
2023-01-25T09:12:18.801Z,17.45
2023-01-25T09:14:22.287Z,19.48
2023-01-25T09:16:30.119Z,20.85
2023-01-25T09:18:34.543Z,20.60
2023-01-25T09:20:40.800Z,20.30
2023-01-25T09:22:45.668Z,23.25
2023-01-25T09:24:52.190Z,22.88
2023-01-25T09:26:59.599Z,21.70
2023-01-25T09:29:03.284Z,23.70
2023-01-25T09:31:21.060Z,21.58
2023-01-25T09:33:41.973Z,22.17
2023-01-25T09:35:49.289Z,20.08
2023-01-25T09:37:54.103Z,21.30
2023-01-25T09:39:57.483Z,22.88
2023-01-25T09:42:24.560Z,20.38
2023-01-25T09:44:42.430Z,18.15
2023-01-25T09:46:48.936Z,22.33
2023-01-25T09:49:07.604Z,21.38
2023-01-25T09:51:23.666Z,21.40
2023-01-25T09:53:34.584Z,21.15
2023-01-25T09:55:39.099Z,23.33
2023-01-25T09:57:44.869Z,22.92
2023-01-25T09:59:51.264Z,23.50
2023-01-25T10:01:58.424Z,24.55
2023-01-25T10:04:06.343Z,35.10
2023-01-25T10:06:14.079Z,25.90
2023-01-25T10:08:26.231Z,27.45
2023-01-25T10:10:36.767Z,26.70
2023-01-25T10:12:40.782Z,25.85
2023-01-25T10:14:44.199Z,26.38
2023-01-25T10:16:59.520Z,25.85
2023-01-25T10:19:17.121Z,22.95
2023-01-25T10:21:26.832Z,21.45
2023-01-25T10:24:01.944Z,21.88
2023-01-25T10:26:14.582Z,20.80
2023-01-25T10:28:35.605Z,21.42
2023-01-25T10:30:45.245Z,24.77
2023-01-25T10:32:56.225Z,19.40
2023-01-25T10:35:17.444Z,21.13
2023-01-25T10:37:25.971Z,22.63
2023-01-25T10:39:30.628Z,23.50
2023-01-25T10:41:40.833Z,23.40
2023-01-25T10:43:44.422Z,23.48
2023-01-25T10:45:48.892Z,24.30
2023-01-25T10:48:00.964Z,21.00
2023-01-25T10:50:04.726Z,20.27
2023-01-25T10:52:17.067Z,23.30
2023-01-25T10:54:23.796Z,25.75
2023-01-25T10:56:28.951Z,23.88
2023-01-25T10:58:37.072Z,22.95
2023-01-25T11:00:42.110Z,25.27
2023-01-25T11:02:47.223Z,25.13
2023-01-25T11:04:50.750Z,21.92
2023-01-25T11:06:54.124Z,25.17
2023-01-25T11:08:57.710Z,21.88
2023-01-25T11:11:13.610Z,23.35
2023-01-25T11:13:22.992Z,23.38
2023-01-25T11:15:27.833Z,20.48
2023-01-25T11:17:32.479Z,23.67
2023-01-25T11:19:37.634Z,21.75
2023-01-25T11:21:53.126Z,22.30
2023-01-25T11:24:01.583Z,23.02
2023-01-25T11:26:14.235Z,24.70
2023-01-25T11:28:23.024Z,24.02
2023-01-25T11:30:27.752Z,23.33
2023-01-25T11:32:31.222Z,24.15
2023-01-25T11:34:34.608Z,25.50
2023-01-25T11:36:46.464Z,27.35
2023-01-25T11:39:07.269Z,29.90
2023-01-25T11:41:18.275Z,29.33
2023-01-25T11:43:39.507Z,33.17
2023-01-25T11:46:06.369Z,30.17
2023-01-25T11:48:25.962Z,30.17
2023-01-25T11:50:36.677Z,27.67
2023-01-25T11:52:59.951Z,27.63
2023-01-25T11:55:20.451Z,26.52
2023-01-25T11:57:45.180Z,27.25
2023-01-25T12:00:02.299Z,25.20
2023-01-25T12:02:24.070Z,27.88
2023-01-25T12:04:48.557Z,22.40
2023-01-25T12:06:59.853Z,22.98
2023-01-25T12:09:22.385Z,24.27
2023-01-25T12:11:44.550Z,23.70
2023-01-25T12:13:54.324Z,26.38
2023-01-25T12:16:12.956Z,23.50
2023-01-25T12:18:33.414Z,23.40
2023-01-25T12:20:56.684Z,24.38
2023-01-25T12:23:16.819Z,29.35
2023-01-25T12:25:29.139Z,31.77
2023-01-25T12:27:45.273Z,33.00
2023-01-25T12:29:55.671Z,32.22
2023-01-25T12:32:05.012Z,33.15
2023-01-25T12:34:17.201Z,54.33
2023-01-25T12:36:28.175Z,41.45
2023-01-25T12:38:39.210Z,31.65
2023-01-25T12:40:49.999Z,43.03
2023-01-25T12:42:57.545Z,39.17
2023-01-25T12:45:06.081Z,32.38
2023-01-25T12:47:21.221Z,33.42
2023-01-25T12:49:31.039Z,32.20
2023-01-25T12:51:42.655Z,32.08
2023-01-25T12:53:48.163Z,29.83
2023-01-25T12:55:53.342Z,29.27
2023-01-25T12:58:03.239Z,26.85
2023-01-25T13:00:18.912Z,30.90
2023-01-25T13:02:37.750Z,28.52
2023-01-25T13:04:57.906Z,33.15
2023-01-25T13:07:10.975Z,29.95
2023-01-25T13:09:21.468Z,28.92
2023-01-25T13:11:31.236Z,29.30
2023-01-25T13:13:34.685Z,30.40
2023-01-25T13:15:40.288Z,30.75
2023-01-25T13:17:43.928Z,27.70
2023-01-25T13:19:49.812Z,26.58
2023-01-25T13:21:56.598Z,28.23
2023-01-25T13:24:21.742Z,25.52
2023-01-25T13:26:49.607Z,27.33
2023-01-25T13:28:55.156Z,27.23
2023-01-25T13:30:58.579Z,27.77
2023-01-25T13:33:06.253Z,35.33
2023-01-25T13:35:36.927Z,30.40
2023-01-25T13:37:42.414Z,30.02
2023-01-25T13:39:48.574Z,28.25
2023-01-25T13:42:01.809Z,30.98
2023-01-25T13:44:26.190Z,30.38
2023-01-25T13:46:29.723Z,28.77
2023-01-25T13:48:38.199Z,26.48
2023-01-25T13:50:48.389Z,27.08
2023-01-25T13:52:59.572Z,26.15
2023-01-25T13:55:03.121Z,24.77
2023-01-25T13:57:08.901Z,26.13
2023-01-25T13:59:26.232Z,26.48
2023-01-25T14:01:32.161Z,24.10
2023-01-25T14:03:38.339Z,23.50
2023-01-25T14:05:52.218Z,22.05
2023-01-25T14:07:58.279Z,21.70
2023-01-25T14:10:03.375Z,26.30
2023-01-25T14:12:11.546Z,24.08
2023-01-25T14:14:21.850Z,25.00
2023-01-25T14:16:27.416Z,25.25
2023-01-25T14:18:32.945Z,23.73
2023-01-25T14:20:36.444Z,25.83
2023-01-25T14:22:47.775Z,22.27
2023-01-25T14:25:07.146Z,25.20
2023-01-25T14:27:15.241Z,23.98
2023-01-25T14:29:36.172Z,25.85
2023-01-25T14:31:41.150Z,24.05
2023-01-25T14:33:47.784Z,26.83
2023-01-25T14:35:58.450Z,27.52
2023-01-25T14:38:21.800Z,23.92
2023-01-25T14:40:27.375Z,23.73
2023-01-25T14:42:30.879Z,24.75
2023-01-25T14:44:35.059Z,22.15
2023-01-25T14:46:39.883Z,23.92
2023-01-25T14:48:45.010Z,25.10
2023-01-25T14:50:48.670Z,24.58
2023-01-25T14:52:52.190Z,22.95
2023-01-25T14:54:59.826Z,22.40
2023-01-25T14:57:05.125Z,22.40
2023-01-25T14:59:21.132Z,22.63
2023-01-25T15:01:32.645Z,24.55
2023-01-25T15:03:36.097Z,25.88
2023-01-25T15:05:39.575Z,27.55
2023-01-25T15:07:45.754Z,26.38
2023-01-25T15:10:05.013Z,26.65
2023-01-25T15:12:28.521Z,25.60
2023-01-25T15:14:32.589Z,24.38
2023-01-25T15:16:36.571Z,23.58
2023-01-25T15:18:48.722Z,22.85
2023-01-25T15:20:53.374Z,24.73
2023-01-25T15:22:57.565Z,25.10
2023-01-25T15:25:03.221Z,26.63
2023-01-25T15:27:11.553Z,27.35
2023-01-25T15:29:17.187Z,24.38
2023-01-25T15:31:23.532Z,23.55
2023-01-25T15:33:29.697Z,24.63
2023-01-25T15:35:34.608Z,25.08
2023-01-25T15:37:38.023Z,24.50
2023-01-25T15:39:41.444Z,24.60
2023-01-25T15:41:46.744Z,24.58
2023-01-25T15:43:50.764Z,24.73
2023-01-25T15:45:56.755Z,25.70
2023-01-25T15:48:00.532Z,29.52
2023-01-25T15:50:04.090Z,32.13
2023-01-25T15:52:07.499Z,33.10
2023-01-25T15:54:10.969Z,31.48
2023-01-25T15:56:16.831Z,29.10
2023-01-25T15:58:25.148Z,30.45
2023-01-25T16:00:28.663Z,29.40
2023-01-25T16:02:32.211Z,29.30
2023-01-25T16:04:37.764Z,29.88
2023-01-25T16:06:42.877Z,27.58
2023-01-25T16:08:46.335Z,26.20
2023-01-25T16:10:49.949Z,30.40
2023-01-25T16:12:53.312Z,25.75
2023-01-25T16:14:58.154Z,27.42
2023-01-25T16:17:04.488Z,28.80
2023-01-25T16:19:08.112Z,26.08
2023-01-25T16:21:12.692Z,25.17
2023-01-25T16:23:16.138Z,23.83
2023-01-25T16:25:19.565Z,28.40
2023-01-25T16:27:25.757Z,25.48
2023-01-25T16:29:29.476Z,25.38
2023-01-25T16:31:34.422Z,25.60
2023-01-25T16:33:37.856Z,26.23
2023-01-25T16:35:41.395Z,26.73
2023-01-25T16:37:44.846Z,26.23
2023-01-25T16:39:48.294Z,26.55
2023-01-25T16:41:51.845Z,25.77
2023-01-25T16:43:55.241Z,26.30
2023-01-25T16:45:59.621Z,25.58
2023-01-25T16:48:04.590Z,24.15
2023-01-25T16:50:13.606Z,31.23
2023-01-25T16:52:16.997Z,28.40
2023-01-25T16:54:21.509Z,25.75
2023-01-25T16:56:27.167Z,25.52
2023-01-25T16:58:30.590Z,22.63
2023-01-25T17:00:34.025Z,23.77
2023-01-25T17:02:40.102Z,25.33
2023-01-25T17:04:46.640Z,23.00
2023-01-25T17:06:52.970Z,22.35
2023-01-25T17:09:00.317Z,21.80
2023-01-25T17:11:05.135Z,21.90
2023-01-25T17:13:08.778Z,23.17
2023-01-25T17:15:12.380Z,23.98
2023-01-25T17:17:15.827Z,23.20
2023-01-25T17:19:20.247Z,23.70
2023-01-25T17:21:25.658Z,24.73
2023-01-25T17:23:30.041Z,22.85
2023-01-25T17:25:35.450Z,23.48
2023-01-25T17:27:38.905Z,21.50
2023-01-25T17:29:42.523Z,23.88
2023-01-25T17:31:45.986Z,24.52
2023-01-25T17:33:50.271Z,22.38
2023-01-25T17:35:58.329Z,23.80
2023-01-25T17:38:03.186Z,23.50
2023-01-25T17:40:07.888Z,22.02
2023-01-25T17:42:13.178Z,25.20
2023-01-25T17:44:20.489Z,24.70
2023-01-25T17:46:26.431Z,22.33
2023-01-25T17:48:30.029Z,21.45
2023-01-25T17:50:33.544Z,24.23
2023-01-25T17:52:37.011Z,23.02
2023-01-25T17:54:41.854Z,21.33
2023-01-25T17:56:45.362Z,24.50
2023-01-25T17:58:48.923Z,21.67
2023-01-25T18:00:55.179Z,23.98
2023-01-25T18:03:02.666Z,22.65
2023-01-25T18:05:07.940Z,24.27
2023-01-25T18:07:11.383Z,23.77
2023-01-25T18:09:14.838Z,22.27
2023-01-25T18:11:21.874Z,22.88
2023-01-25T18:13:25.271Z,18.42
2023-01-25T18:15:28.679Z,22.77
2023-01-25T18:17:35.499Z,20.88
2023-01-25T18:19:39.125Z,20.27
2023-01-25T18:21:43.360Z,19.23
2023-01-25T18:23:48.485Z,17.58
2023-01-25T18:25:51.961Z,20.58
2023-01-25T18:27:56.762Z,20.35
2023-01-25T18:30:02.446Z,22.08
2023-01-25T18:32:06.666Z,20.02
2023-01-25T18:34:10.161Z,19.33
2023-01-25T18:36:15.145Z,22.25
2023-01-25T18:38:18.643Z,18.65
2023-01-25T18:40:22.258Z,18.02
2023-01-25T18:42:27.567Z,18.13
2023-01-25T18:44:32.898Z,16.98
2023-01-25T18:46:36.623Z,18.02
2023-01-25T18:48:40.263Z,18.45
2023-01-25T18:50:44.067Z,21.65
2023-01-25T18:52:47.780Z,17.10
2023-01-25T18:54:51.410Z,21.23
2023-01-25T18:56:55.488Z,20.77
2023-01-25T18:58:59.387Z,19.23
2023-01-25T19:01:06.516Z,17.95
2023-01-25T19:03:09.922Z,16.92
2023-01-25T19:05:14.335Z,15.52
2023-01-25T19:07:18.265Z,16.60
2023-01-25T19:09:21.900Z,15.73
2023-01-25T19:11:26.547Z,14.23
2023-01-25T19:13:32.378Z,14.07
2023-01-25T19:15:35.921Z,15.82
2023-01-25T19:17:40.768Z,14.18
2023-01-25T19:19:44.379Z,13.45
2023-01-25T19:21:48.112Z,12.35
2023-01-25T19:23:52.133Z,12.35
2023-01-25T19:25:55.802Z,12.85
2023-01-25T19:27:59.339Z,11.93
2023-01-25T19:30:02.930Z,12.68
2023-01-25T19:32:06.615Z,12.82
2023-01-25T19:34:11.413Z,12.50
2023-01-25T19:36:18.364Z,12.23
2023-01-25T19:38:21.830Z,22.27
2023-01-25T19:40:25.204Z,16.00
2023-01-25T19:42:28.629Z,14.45
2023-01-25T19:44:32.169Z,14.80
2023-01-25T19:46:37.176Z,13.88
2023-01-25T19:48:42.450Z,13.00
2023-01-25T19:50:47.490Z,14.77
2023-01-25T19:52:50.920Z,12.82
2023-01-25T19:54:54.293Z,12.35
2023-01-25T19:56:58.526Z,13.25
2023-01-25T19:59:04.920Z,11.73
2023-01-25T20:01:09.333Z,13.45
2023-01-25T20:03:16.698Z,11.95
2023-01-25T20:05:21.170Z,11.93
2023-01-25T20:07:27.739Z,12.98
2023-01-25T20:09:31.275Z,11.65
2023-01-25T20:11:35.133Z,11.20
2023-01-25T20:13:38.600Z,11.40
2023-01-25T20:15:47.416Z,10.40
2023-01-25T20:17:50.803Z,10.45
2023-01-25T20:19:54.195Z,11.05
2023-01-25T20:22:00.299Z,10.93
2023-01-25T20:24:06.700Z,11.57
2023-01-25T20:26:13.690Z,10.25
2023-01-25T20:28:17.197Z,12.13
2023-01-25T20:30:20.796Z,10.60
2023-01-25T20:32:32.656Z,9.60
2023-01-25T20:34:37.030Z,11.90
2023-01-25T20:36:41.321Z,11.32
2023-01-25T20:38:44.821Z,10.50
2023-01-25T20:40:49.682Z,11.20
2023-01-25T20:42:53.025Z,12.48
2023-01-25T20:44:56.479Z,10.40
2023-01-25T20:46:59.968Z,10.50
2023-01-25T20:49:05.063Z,16.10
2023-01-25T20:51:12.984Z,16.10
2023-01-25T20:53:17.096Z,14.15
2023-01-25T20:55:20.576Z,9.65
2023-01-25T20:57:25.369Z,10.07
2023-01-25T20:59:28.731Z,10.00
2023-01-25T21:01:36.677Z,10.70
2023-01-25T21:03:40.249Z,9.38
2023-01-25T21:05:50.217Z,10.88
2023-01-25T21:07:54.108Z,9.55
2023-01-25T21:09:57.616Z,11.02
2023-01-25T21:12:01.022Z,11.38
2023-01-25T21:14:05.850Z,10.45
2023-01-25T21:16:11.154Z,11.05
2023-01-25T21:18:14.586Z,11.52
2023-01-25T21:20:18.123Z,11.18
2023-01-25T21:22:21.540Z,12.43
2023-01-25T21:24:25.243Z,12.93
2023-01-25T21:26:30.917Z,11.95
2023-01-25T21:28:35.412Z,13.27
2023-01-25T21:30:40.229Z,16.05
2023-01-25T21:32:43.609Z,14.32
2023-01-25T21:34:47.279Z,16.83
2023-01-25T21:36:51.495Z,19.35
2023-01-25T21:38:56.010Z,22.52
2023-01-25T21:41:01.640Z,18.13
2023-01-25T21:43:05.192Z,17.17
2023-01-25T21:45:28.712Z,21.42
2023-01-25T21:47:33.608Z,23.85
2023-01-25T21:49:54.446Z,19.05
2023-01-25T21:52:01.928Z,17.80
2023-01-25T21:54:05.870Z,20.80
2023-01-25T21:56:09.543Z,20.38
2023-01-25T21:58:14.191Z,18.15
2023-01-25T22:00:18.460Z,18.15
2023-01-25T22:02:21.929Z,19.00
2023-01-25T22:04:27.102Z,21.65
2023-01-25T22:06:30.729Z,22.23
2023-01-25T22:08:34.643Z,17.98
2023-01-25T22:10:37.996Z,16.98
2023-01-25T22:12:41.410Z,20.58
2023-01-25T22:14:44.790Z,19.27
2023-01-25T22:16:48.403Z,17.90
2023-01-25T22:18:52.127Z,19.90
2023-01-25T22:21:01.228Z,20.90
2023-01-25T22:23:04.598Z,16.50
2023-01-25T22:25:08.498Z,18.27
2023-01-25T22:27:31.923Z,19.27
2023-01-25T22:29:35.421Z,20.73
2023-01-25T22:31:39.867Z,20.77
2023-01-25T22:33:43.825Z,19.27
2023-01-25T22:35:47.218Z,22.83
2023-01-25T22:37:51.961Z,20.42
2023-01-25T22:39:58.329Z,22.00
2023-01-25T22:42:01.852Z,22.13
2023-01-25T22:44:05.589Z,20.45
2023-01-25T22:46:11.730Z,20.38
2023-01-25T22:48:15.190Z,21.48
2023-01-25T22:50:18.623Z,20.23
2023-01-25T22:52:23.262Z,20.63
2023-01-25T22:54:27.980Z,22.55
2023-01-25T22:56:33.686Z,21.75
2023-01-25T22:58:38.499Z,21.98
2023-01-25T23:00:42.023Z,24.20
2023-01-25T23:02:45.629Z,21.40
2023-01-25T23:04:49.135Z,22.30
2023-01-25T23:07:02.471Z,22.38
2023-01-25T23:09:07.753Z,22.67
2023-01-25T23:11:14.764Z,23.90
2023-01-25T23:13:18.251Z,23.95
2023-01-25T23:15:20.787Z,24.27
2023-01-25T23:17:42.866Z,21.95
2023-01-25T23:19:46.273Z,24.00
2023-01-25T23:21:49.735Z,21.83
2023-01-25T23:23:53.370Z,25.13
2023-01-25T23:25:58.029Z,23.10
2023-01-25T23:28:02.852Z,21.90
2023-01-25T23:30:09.249Z,23.38
2023-01-25T23:32:12.952Z,23.60
2023-01-25T23:34:16.412Z,25.05
2023-01-25T23:36:22.138Z,25.90
2023-01-25T23:38:25.533Z,23.25
2023-01-25T23:40:29.036Z,22.27
2023-01-25T23:42:32.411Z,22.15
2023-01-25T23:44:37.170Z,23.48
2023-01-25T23:46:40.601Z,22.35
2023-01-25T23:48:44.493Z,23.08
2023-01-25T23:50:47.902Z,20.65
2023-01-25T23:52:51.324Z,22.88
2023-01-25T23:54:54.733Z,24.52
2023-01-25T23:56:58.152Z,26.77
2023-01-25T23:59:01.710Z,23.98
